createdAt,value
2022-10-19T00:01:03.589Z,9.19
2022-10-19T00:03:30.800Z,9.21
2022-10-19T00:05:57.617Z,9.20
2022-10-19T00:08:24.408Z,9.25
2022-10-19T00:10:51.163Z,9.24
2022-10-19T00:13:18.149Z,9.28
2022-10-19T00:15:45.320Z,9.32
2022-10-19T00:18:12.051Z,9.37
2022-10-19T00:20:38.735Z,9.38
2022-10-19T00:23:05.446Z,9.38
2022-10-19T00:25:32.263Z,9.37
2022-10-19T00:27:59.189Z,9.34
2022-10-19T00:30:25.830Z,9.41
2022-10-19T00:32:52.576Z,9.41
2022-10-19T00:35:19.292Z,9.41
2022-10-19T00:37:45.966Z,9.42
2022-10-19T00:40:13.117Z,9.34
2022-10-19T00:42:39.692Z,9.42
2022-10-19T00:45:13.748Z,9.43
2022-10-19T00:47:41.345Z,9.38
2022-10-19T00:50:09.141Z,9.40
2022-10-19T00:52:36.138Z,9.45
2022-10-19T00:55:03.357Z,9.46
2022-10-19T00:57:31.789Z,9.47
2022-10-19T01:00:00.987Z,9.39
2022-10-19T01:02:27.740Z,9.46
2022-10-19T01:04:54.760Z,9.43
2022-10-19T01:07:21.686Z,9.48
2022-10-19T01:09:48.349Z,9.49
2022-10-19T01:12:23.647Z,9.46
2022-10-19T01:15:05.653Z,9.51
2022-10-19T01:17:45.694Z,9.48
2022-10-19T01:20:49.620Z,9.48
2022-10-19T01:23:34.844Z,9.50
2022-10-19T01:26:04.155Z,9.50
2022-10-19T01:28:46.001Z,9.43
2022-10-19T01:31:48.077Z,9.45
2022-10-19T01:34:33.289Z,9.41
2022-10-19T01:37:02.832Z,9.43
2022-10-19T01:40:02.059Z,9.48
2022-10-19T01:42:32.968Z,9.56
2022-10-19T01:45:11.399Z,9.54
2022-10-19T01:47:58.229Z,9.46
2022-10-19T01:50:36.098Z,9.42
2022-10-19T01:53:06.662Z,9.46
2022-10-19T01:55:34.398Z,9.46
2022-10-19T01:58:08.359Z,9.44
2022-10-19T02:00:41.213Z,9.40
2022-10-19T02:03:10.287Z,9.27
2022-10-19T02:05:39.066Z,9.24
2022-10-19T02:08:15.709Z,9.27
2022-10-19T02:10:45.078Z,9.29
2022-10-19T02:13:14.289Z,9.25
2022-10-19T02:15:45.156Z,9.34
2022-10-19T02:18:15.737Z,9.31
2022-10-19T02:20:42.372Z,9.35
2022-10-19T02:23:09.847Z,9.28
2022-10-19T02:25:36.924Z,9.33
2022-10-19T02:28:05.511Z,9.34
2022-10-19T02:30:32.426Z,9.38
2022-10-19T02:32:59.354Z,9.38
2022-10-19T02:35:26.476Z,9.40
2022-10-19T02:37:53.201Z,9.37
2022-10-19T02:40:20.064Z,9.32
2022-10-19T02:42:58.442Z,9.35
2022-10-19T02:45:37.455Z,9.32
2022-10-19T02:48:13.184Z,9.38
2022-10-19T02:50:44.384Z,9.40
2022-10-19T02:53:11.169Z,9.57
2022-10-19T02:55:38.192Z,9.57
2022-10-19T02:58:05.010Z,9.77
2022-10-19T03:00:31.674Z,9.67
2022-10-19T03:02:58.261Z,9.87
2022-10-19T03:05:24.941Z,9.74
2022-10-19T03:07:52.042Z,9.69
2022-10-19T03:10:18.620Z,9.66
2022-10-19T03:12:45.312Z,9.64
2022-10-19T03:15:16.551Z,9.62
2022-10-19T03:17:43.473Z,9.63
2022-10-19T03:20:11.058Z,9.61
2022-10-19T03:22:38.063Z,9.58
2022-10-19T03:25:05.055Z,9.56
2022-10-19T03:27:32.020Z,9.55
2022-10-19T03:29:58.811Z,9.60
2022-10-19T03:32:25.594Z,9.55
2022-10-19T03:34:52.418Z,9.59
2022-10-19T03:37:19.080Z,9.59
2022-10-19T03:39:45.823Z,9.66
2022-10-19T03:42:12.520Z,9.69
2022-10-19T03:44:39.172Z,9.66
2022-10-19T03:47:05.809Z,9.82
2022-10-19T03:49:34.561Z,9.76
2022-10-19T03:52:03.594Z,9.89
2022-10-19T03:54:30.183Z,9.92
2022-10-19T03:56:56.858Z,9.92
2022-10-19T03:59:24.402Z,9.91
2022-10-19T04:01:51.000Z,9.84
2022-10-19T04:04:19.464Z,9.79
2022-10-19T04:06:48.115Z,9.74
2022-10-19T04:09:18.375Z,9.89
2022-10-19T04:11:45.903Z,9.93
2022-10-19T04:14:26.755Z,9.89
2022-10-19T04:17:03.346Z,9.98
2022-10-19T04:19:30.985Z,10.03
2022-10-19T04:21:58.169Z,10.10
2022-10-19T04:24:25.017Z,10.10
2022-10-19T04:26:54.539Z,9.95
2022-10-19T04:29:26.350Z,9.92
2022-10-19T04:31:56.329Z,9.78
2022-10-19T04:34:23.200Z,9.79
2022-10-19T04:36:50.086Z,9.90
2022-10-19T04:39:16.722Z,9.79
2022-10-19T04:41:43.348Z,9.80
2022-10-19T04:44:10.575Z,9.69
2022-10-19T04:46:38.484Z,9.71
2022-10-19T04:49:06.869Z,9.64
2022-10-19T04:51:33.717Z,9.63
2022-10-19T04:54:00.349Z,9.67
2022-10-19T04:56:27.847Z,9.64
2022-10-19T04:58:57.632Z,9.60
2022-10-19T05:01:25.610Z,9.62
2022-10-19T05:06:29.573Z,9.57
2022-10-19T05:08:56.857Z,9.75
2022-10-19T05:11:23.955Z,9.72
2022-10-19T05:13:51.244Z,9.70
2022-10-19T05:16:20.886Z,9.68
2022-10-19T05:18:51.980Z,9.71
2022-10-19T05:21:20.749Z,9.70
2022-10-19T05:23:50.606Z,9.79
2022-10-19T05:26:19.024Z,9.80
2022-10-19T05:29:04.748Z,9.78
2022-10-19T05:31:33.618Z,9.75
2022-10-19T05:34:01.240Z,9.78
2022-10-19T05:36:37.451Z,9.81
2022-10-19T05:39:13.091Z,9.86
2022-10-19T05:41:40.398Z,9.92
2022-10-19T05:44:07.030Z,9.98
2022-10-19T05:46:33.991Z,10.07
2022-10-19T05:49:00.766Z,10.08
2022-10-19T05:51:28.710Z,10.05
2022-10-19T05:53:56.458Z,10.03
2022-10-19T05:56:29.568Z,10.02
2022-10-19T05:58:58.236Z,9.93
2022-10-19T06:01:25.750Z,10.03
2022-10-19T06:03:54.755Z,10.06
2022-10-19T06:06:21.960Z,10.10
2022-10-19T06:08:49.639Z,10.17
2022-10-19T06:11:25.920Z,10.15
2022-10-19T06:13:55.798Z,10.09
2022-10-19T06:16:24.113Z,10.14
2022-10-19T06:18:52.437Z,10.15
2022-10-19T06:21:22.562Z,10.07
2022-10-19T06:24:03.999Z,10.11
2022-10-19T06:26:32.443Z,10.12
2022-10-19T06:29:00.791Z,10.12
2022-10-19T06:31:33.249Z,10.17
2022-10-19T06:34:00.104Z,10.18
2022-10-19T06:36:30.037Z,10.10
2022-10-19T06:38:57.100Z,10.06
2022-10-19T06:41:24.103Z,10.08
2022-10-19T06:43:55.090Z,10.18
2022-10-19T06:46:23.457Z,10.27
2022-10-19T06:48:55.967Z,10.25
2022-10-19T06:51:25.477Z,10.22
2022-10-19T06:53:56.634Z,10.33
2022-10-19T06:56:24.804Z,10.43
2022-10-19T06:58:52.383Z,10.33
2022-10-19T07:01:19.237Z,10.30
2022-10-19T07:03:46.059Z,10.34
2022-10-19T07:06:13.749Z,10.39
2022-10-19T07:08:42.166Z,10.49
2022-10-19T07:11:12.319Z,10.63
2022-10-19T07:13:39.432Z,10.61
2022-10-19T07:16:14.512Z,10.56
2022-10-19T07:18:44.666Z,10.61
2022-10-19T07:21:14.188Z,10.57
2022-10-19T07:23:42.361Z,10.74
2022-10-19T07:26:23.496Z,10.63
2022-10-19T07:28:50.995Z,10.73
2022-10-19T07:31:20.632Z,10.75
2022-10-19T07:33:51.632Z,10.69
2022-10-19T07:36:18.224Z,10.85
2022-10-19T07:38:44.885Z,10.85
2022-10-19T07:41:13.973Z,10.87
2022-10-19T07:43:41.952Z,10.88
2022-10-19T07:46:12.487Z,11.05
2022-10-19T07:48:39.326Z,11.15
2022-10-19T07:51:08.160Z,11.09
2022-10-19T07:53:35.428Z,11.24
2022-10-19T07:56:05.028Z,11.31
2022-10-19T07:58:31.902Z,11.30
2022-10-19T08:01:10.033Z,11.52
2022-10-19T08:06:25.446Z,11.58
2022-10-19T08:08:54.576Z,11.64
2022-10-19T08:11:48.047Z,11.73
2022-10-19T08:15:07.889Z,11.67
2022-10-19T08:17:11.964Z,11.68
2022-10-19T08:19:43.389Z,11.68
2022-10-19T08:22:10.733Z,11.72
2022-10-19T08:24:37.491Z,11.68
2022-10-19T08:27:04.209Z,11.69
2022-10-19T08:29:31.703Z,11.68
2022-10-19T08:31:59.525Z,11.71
2022-10-19T08:34:36.964Z,11.84
2022-10-19T08:37:10.442Z,11.90
2022-10-19T08:39:46.886Z,11.91
2022-10-19T08:42:18.445Z,12.15
2022-10-19T08:45:23.214Z,12.10
2022-10-19T08:48:14.408Z,12.22
2022-10-19T08:50:44.125Z,12.25
2022-10-19T08:53:15.768Z,12.29
2022-10-19T08:56:05.731Z,12.31
2022-10-19T08:58:53.385Z,12.30
2022-10-19T09:01:40.862Z,12.45
2022-10-19T09:04:33.341Z,12.37
2022-10-19T09:07:07.957Z,12.45
2022-10-19T09:09:41.614Z,12.71
2022-10-19T09:12:16.758Z,12.75
2022-10-19T09:15:06.044Z,12.83
2022-10-19T09:17:33.676Z,12.76
2022-10-19T09:20:22.651Z,12.70
2022-10-19T09:23:20.012Z,12.60
2022-10-19T09:25:50.188Z,12.82
2022-10-19T09:28:20.138Z,12.69
2022-10-19T09:30:52.357Z,13.25
2022-10-19T09:33:31.691Z,13.33
2022-10-19T09:36:02.265Z,13.23
2022-10-19T09:38:31.544Z,13.04
2022-10-19T09:41:07.730Z,13.37
2022-10-19T09:43:34.885Z,13.50
2022-10-19T09:46:19.834Z,14.10
2022-10-19T09:48:52.399Z,13.86
2022-10-19T09:51:20.574Z,13.66
2022-10-19T09:53:54.884Z,14.11
2022-10-19T09:56:26.888Z,14.80
2022-10-19T09:58:57.318Z,14.64
2022-10-19T10:01:41.468Z,14.97
2022-10-19T10:04:14.956Z,14.53
2022-10-19T10:06:43.011Z,14.24
2022-10-19T10:09:17.374Z,14.07
2022-10-19T10:11:48.236Z,13.86
2022-10-19T10:14:21.664Z,13.52
2022-10-19T10:16:48.408Z,13.39
2022-10-19T10:19:17.332Z,13.20
2022-10-19T10:21:56.670Z,13.04
2022-10-19T10:24:29.520Z,12.80
2022-10-19T10:26:58.740Z,12.78
2022-10-19T10:29:28.282Z,12.76
2022-10-19T10:32:32.187Z,12.76
2022-10-19T10:35:04.915Z,12.96
2022-10-19T10:37:46.907Z,13.00
2022-10-19T10:40:31.998Z,12.91
2022-10-19T10:43:07.138Z,13.15
2022-10-19T10:45:39.774Z,13.15
2022-10-19T10:48:25.290Z,13.33
2022-10-19T10:50:53.031Z,13.65
2022-10-19T10:53:55.126Z,13.98
2022-10-19T10:56:21.727Z,14.43
2022-10-19T10:59:00.576Z,14.32
2022-10-19T11:01:33.616Z,14.59
2022-10-19T11:04:19.401Z,14.70
2022-10-19T11:06:56.654Z,14.57
2022-10-19T11:09:35.713Z,14.46
2022-10-19T11:12:10.381Z,14.01
2022-10-19T11:14:46.775Z,14.16
2022-10-19T11:17:27.685Z,13.45
2022-10-19T11:19:54.467Z,13.48
2022-10-19T11:22:35.558Z,13.39
2022-10-19T11:25:25.139Z,14.08
2022-10-19T11:28:01.917Z,14.29
2022-10-19T11:30:39.023Z,14.74
2022-10-19T11:33:59.798Z,14.89
2022-10-19T11:36:54.729Z,15.33
2022-10-19T11:39:36.279Z,15.89
2022-10-19T11:42:34.756Z,15.73
2022-10-19T11:45:40.003Z,16.03
2022-10-19T11:48:06.654Z,16.33
2022-10-19T11:50:49.718Z,16.58
2022-10-19T11:54:18.811Z,16.42
2022-10-19T11:57:11.506Z,16.47
2022-10-19T12:00:38.066Z,16.68
2022-10-19T12:03:44.814Z,16.76
2022-10-19T12:06:45.794Z,16.79
2022-10-19T12:09:25.034Z,17.01
2022-10-19T12:12:22.770Z,15.87
2022-10-19T12:14:53.521Z,15.72
2022-10-19T12:17:36.572Z,15.00
2022-10-19T12:20:08.770Z,14.88
2022-10-19T12:22:37.655Z,14.79
2022-10-19T12:25:04.942Z,14.54
2022-10-19T12:27:37.400Z,14.63
2022-10-19T12:30:16.924Z,14.39
2022-10-19T12:32:58.682Z,14.41
2022-10-19T12:35:32.377Z,14.19
2022-10-19T12:38:45.087Z,13.89
2022-10-19T12:41:41.689Z,13.44
2022-10-19T12:44:27.326Z,13.42
2022-10-19T12:47:01.049Z,14.41
2022-10-19T12:49:30.595Z,14.92
2022-10-19T12:51:59.190Z,15.26
2022-10-19T12:54:39.171Z,15.53
2022-10-19T12:57:36.668Z,15.49
2022-10-19T13:00:20.597Z,15.66
2022-10-19T13:02:56.897Z,15.91
2022-10-19T13:05:37.696Z,16.34
2022-10-19T13:08:30.094Z,16.51
2022-10-19T13:11:18.098Z,16.55
2022-10-19T13:13:59.206Z,16.21
2022-10-19T13:17:02.087Z,15.37
2022-10-19T13:19:29.637Z,14.81
2022-10-19T13:22:02.094Z,14.52
2022-10-19T13:24:37.011Z,14.38
2022-10-19T13:27:03.766Z,14.34
2022-10-19T13:29:40.510Z,13.83
2022-10-19T13:32:37.607Z,13.41
2022-10-19T13:35:31.638Z,13.42
2022-10-19T13:38:16.563Z,13.50
2022-10-19T13:40:49.345Z,13.77
2022-10-19T13:43:26.057Z,13.76
2022-10-19T13:46:06.210Z,13.51
2022-10-19T13:49:14.420Z,13.41
2022-10-19T13:51:43.900Z,13.20
2022-10-19T13:54:34.113Z,12.88
2022-10-19T13:57:15.386Z,12.70
2022-10-19T14:00:03.154Z,12.61
2022-10-19T14:02:42.230Z,12.73
2022-10-19T14:05:17.861Z,12.61
2022-10-19T14:08:16.420Z,12.37
2022-10-19T14:11:02.958Z,12.15
2022-10-19T14:13:30.185Z,12.07
2022-10-19T14:15:58.973Z,11.96
2022-10-19T14:18:32.944Z,11.87
2022-10-19T14:21:08.343Z,11.99
2022-10-19T14:23:43.096Z,12.08
2022-10-19T14:26:19.617Z,12.10
2022-10-19T14:28:53.616Z,12.10
2022-10-19T14:31:23.176Z,12.12
2022-10-19T14:33:56.429Z,12.14
2022-10-19T14:36:28.199Z,12.03
2022-10-19T14:38:56.442Z,12.07
2022-10-19T14:44:36.437Z,12.11
2022-10-19T14:47:23.379Z,12.02
2022-10-19T14:49:50.976Z,11.98
2022-10-19T14:54:56.938Z,11.92
2022-10-19T14:57:28.886Z,11.83
2022-10-19T15:00:02.196Z,11.77
2022-10-19T15:02:46.182Z,11.65
2022-10-19T15:05:31.449Z,11.63
2022-10-19T15:08:06.232Z,11.47
2022-10-19T15:10:45.879Z,11.38
2022-10-19T15:13:40.954Z,11.34
2022-10-19T15:16:50.043Z,11.16
2022-10-19T15:19:34.213Z,11.29
2022-10-19T15:22:22.562Z,11.28
2022-10-19T15:25:19.305Z,11.16
2022-10-19T15:27:47.658Z,11.00
2022-10-19T15:30:17.251Z,10.93
2022-10-19T15:32:46.708Z,10.79
2022-10-19T15:35:35.052Z,10.73
2022-10-19T15:38:10.192Z,10.67
2022-10-19T15:40:40.145Z,10.48
2022-10-19T15:43:34.709Z,10.36
2022-10-19T15:46:20.511Z,10.17
2022-10-19T15:48:52.304Z,10.04
2022-10-19T15:51:24.894Z,9.93
2022-10-19T15:53:56.885Z,9.81
2022-10-19T15:56:27.485Z,9.65
2022-10-19T15:58:56.816Z,9.59
2022-10-19T16:01:26.594Z,9.48
2022-10-19T16:03:54.419Z,9.34
2022-10-19T16:06:23.440Z,9.27
2022-10-19T16:08:51.275Z,9.19
2022-10-19T16:11:21.169Z,9.10
2022-10-19T16:13:47.853Z,8.92
2022-10-19T16:16:28.245Z,8.83
2022-10-19T16:18:55.518Z,8.77
2022-10-19T16:21:26.851Z,8.68
2022-10-19T16:23:53.805Z,8.54
2022-10-19T16:26:21.124Z,8.40
2022-10-19T16:28:48.889Z,8.40
2022-10-19T16:31:17.203Z,8.30
2022-10-19T16:33:44.136Z,8.29
2022-10-19T16:36:11.162Z,8.16
2022-10-19T16:38:37.803Z,8.07
2022-10-19T16:41:07.993Z,8.01
2022-10-19T16:43:35.468Z,7.89
2022-10-19T16:46:02.794Z,7.84
2022-10-19T16:48:30.118Z,7.80
2022-10-19T16:51:06.083Z,7.78
2022-10-19T16:53:40.422Z,7.67
2022-10-19T16:56:16.486Z,7.72
2022-10-19T16:58:44.275Z,7.67
2022-10-19T17:01:18.920Z,7.58
2022-10-19T17:03:48.369Z,7.48
2022-10-19T17:06:16.150Z,7.45
2022-10-19T17:11:51.831Z,7.43
2022-10-19T17:14:27.282Z,7.35
2022-10-19T17:16:53.982Z,7.27
2022-10-19T17:19:26.693Z,7.28
2022-10-19T17:21:56.042Z,7.16
2022-10-19T17:24:23.046Z,7.12
2022-10-19T17:26:56.551Z,7.07
2022-10-19T17:29:23.497Z,7.05
2022-10-19T17:31:50.708Z,7.06
2022-10-19T17:34:22.601Z,6.98
2022-10-19T17:36:52.847Z,6.87
2022-10-19T17:39:30.830Z,6.83
2022-10-19T17:42:05.074Z,6.75
2022-10-19T17:44:31.979Z,6.73
2022-10-19T17:47:09.948Z,6.77
2022-10-19T17:49:37.063Z,6.69
2022-10-19T17:52:03.773Z,6.73
2022-10-19T17:54:30.727Z,6.68
2022-10-19T17:57:05.917Z,6.59
2022-10-19T17:59:46.764Z,6.56
2022-10-19T18:02:19.010Z,6.45
2022-10-19T18:04:45.617Z,6.42
2022-10-19T18:07:12.208Z,6.39
2022-10-19T18:09:38.953Z,6.48
2022-10-19T18:12:07.491Z,6.42
2022-10-19T18:14:34.450Z,6.35
2022-10-19T18:17:01.049Z,6.26
2022-10-19T18:19:27.931Z,6.20
2022-10-19T18:21:54.623Z,6.28
2022-10-19T18:24:21.655Z,6.27
2022-10-19T18:26:52.215Z,6.19
2022-10-19T18:29:23.953Z,6.10
2022-10-19T18:31:55.119Z,6.05
2022-10-19T18:34:26.513Z,5.97
2022-10-19T18:36:53.963Z,6.02
2022-10-19T18:39:21.094Z,5.95
2022-10-19T18:41:51.903Z,5.85
2022-10-19T18:44:23.502Z,5.82
2022-10-19T18:46:53.126Z,5.82
2022-10-19T18:49:19.823Z,5.79
2022-10-19T18:51:50.742Z,5.68
2022-10-19T18:54:21.583Z,5.70
2022-10-19T18:56:48.199Z,5.62
2022-10-19T18:59:15.237Z,5.66
2022-10-19T19:01:41.971Z,5.61
2022-10-19T19:04:09.671Z,5.64
2022-10-19T19:06:37.718Z,5.62
2022-10-19T19:09:07.930Z,5.56
2022-10-19T19:11:41.578Z,5.47
2022-10-19T19:14:25.375Z,5.49
2022-10-19T19:17:04.239Z,5.44
2022-10-19T19:19:36.308Z,5.41
2022-10-19T19:22:09.637Z,5.32
2022-10-19T19:24:37.079Z,5.37
2022-10-19T19:27:03.896Z,5.34
2022-10-19T19:29:30.674Z,5.28
2022-10-19T19:31:57.454Z,5.26
2022-10-19T19:34:24.226Z,5.29
2022-10-19T19:36:51.069Z,5.26
2022-10-19T19:39:20.121Z,5.20
2022-10-19T19:41:48.384Z,5.17
2022-10-19T19:44:15.694Z,5.17
2022-10-19T19:46:42.740Z,5.18
2022-10-19T19:49:09.607Z,5.09
2022-10-19T19:51:36.353Z,5.06
2022-10-19T19:54:03.154Z,5.14
2022-10-19T19:56:30.637Z,5.04
2022-10-19T19:58:59.686Z,5.04
2022-10-19T20:01:27.191Z,5.01
2022-10-19T20:03:55.043Z,4.99
2022-10-19T20:06:25.085Z,4.97
2022-10-19T20:08:53.456Z,4.97
2022-10-19T20:11:20.188Z,4.98
2022-10-19T20:13:46.829Z,5.00
2022-10-19T20:16:25.119Z,4.95
2022-10-19T20:19:08.413Z,4.97
2022-10-19T20:21:35.313Z,5.00
2022-10-19T20:24:02.190Z,5.04
2022-10-19T20:26:29.938Z,5.05
2022-10-19T20:28:57.289Z,5.03
2022-10-19T20:31:25.062Z,5.03
2022-10-19T20:33:51.871Z,5.04
2022-10-19T20:36:25.088Z,4.98
2022-10-19T20:38:57.028Z,4.98
2022-10-19T20:41:28.058Z,4.96
2022-10-19T20:43:55.686Z,4.95
2022-10-19T20:46:28.194Z,4.97
2022-10-19T20:48:59.885Z,4.95
2022-10-19T20:51:31.908Z,4.95
2022-10-19T20:54:01.041Z,4.91
2022-10-19T20:56:38.709Z,4.85
2022-10-19T20:59:08.353Z,4.81
2022-10-19T21:01:37.295Z,4.82
2022-10-19T21:04:06.071Z,4.85
2022-10-19T21:06:37.001Z,4.81
2022-10-19T21:09:04.586Z,4.83
2022-10-19T21:11:34.414Z,4.83
2022-10-19T21:14:03.890Z,4.82
2022-10-19T21:16:34.059Z,4.75
2022-10-19T21:19:02.373Z,4.77
2022-10-19T21:21:38.548Z,4.74
2022-10-19T21:24:11.622Z,4.70
2022-10-19T21:26:38.752Z,4.79
2022-10-19T21:29:09.635Z,4.79
2022-10-19T21:31:44.078Z,4.87
2022-10-19T21:34:16.335Z,4.88
2022-10-19T21:36:43.229Z,4.94
2022-10-19T21:39:10.051Z,4.94
2022-10-19T21:41:37.041Z,4.94
2022-10-19T21:44:03.837Z,5.05
2022-10-19T21:46:30.778Z,5.09
2022-10-19T21:48:57.653Z,5.06
2022-10-19T21:51:35.124Z,5.09
2022-10-19T21:56:48.782Z,4.97
2022-10-19T21:59:27.797Z,4.93
2022-10-19T22:01:58.263Z,4.91
2022-10-19T22:04:37.381Z,4.92
2022-10-19T22:07:07.296Z,4.79
2022-10-19T22:09:46.426Z,4.73
2022-10-19T22:14:46.716Z,4.75
2022-10-19T22:17:13.427Z,4.77
2022-10-19T22:19:40.000Z,4.80
2022-10-19T22:22:06.678Z,4.84
2022-10-19T22:24:34.769Z,4.87
2022-10-19T22:27:01.452Z,4.92
2022-10-19T22:29:28.060Z,4.90
2022-10-19T22:31:54.632Z,4.97
2022-10-19T22:34:21.423Z,5.07
2022-10-19T22:36:48.250Z,5.08
2022-10-19T22:39:15.633Z,5.07
2022-10-19T22:41:42.282Z,5.01
2022-10-19T22:44:08.866Z,5.01
2022-10-19T22:46:35.507Z,4.98
2022-10-19T22:49:02.227Z,4.94
2022-10-19T22:51:28.916Z,4.84
2022-10-19T22:53:55.585Z,4.75
2022-10-19T22:56:24.967Z,4.73
2022-10-19T22:58:51.704Z,4.71
2022-10-19T23:01:18.387Z,4.80
2022-10-19T23:03:45.071Z,4.88
2022-10-19T23:06:13.517Z,4.91
2022-10-19T23:08:40.410Z,4.96
2022-10-19T23:11:07.181Z,5.11
2022-10-19T23:13:33.809Z,5.13
2022-10-19T23:16:00.927Z,5.09
2022-10-19T23:18:30.198Z,5.07
2022-10-19T23:21:01.650Z,5.06
2022-10-19T23:23:29.665Z,5.04
2022-10-19T23:26:08.267Z,5.02
2022-10-19T23:28:37.057Z,5.00
2022-10-19T23:31:15.752Z,4.96
2022-10-19T23:33:43.075Z,4.94
2022-10-19T23:36:14.821Z,4.87
2022-10-19T23:38:43.111Z,4.87
2022-10-19T23:41:10.221Z,4.84
2022-10-19T23:46:08.861Z,4.73
2022-10-19T23:48:36.226Z,4.72
2022-10-19T23:51:12.766Z,4.65
2022-10-19T23:53:41.730Z,4.59
2022-10-19T23:56:20.631Z,4.47
2022-10-19T23:58:47.313Z,4.40
